Terminal Aerodrome Forecast
Issued by NWS

Home | Current Version | Previous Version | Text Only | Print | Product List | Glossary On
Versions: 1 2 3 4 5 6 7 8 9 10 11 12 13 14 15 16 17 18 19 20 21
000
FTUS44 KLZK 220500
TAFBPK
TAF
KBPK 220520Z 2206/2306 14009KT P6SM SCT025 OVC040
      TEMPO 2206/2209 BKN025
     FM220900 14009KT 4SM BR SCT015 BKN025
     FM221300 15009KT P6SM VCSH BKN015 OVC025
     FM230000 18010KT P6SM SCT015 BKN025=

USA.gov is the U.S. government's official web portal to all federal, state and local government web resources and services.